createdAt,value
2023-03-16T00:02:05.899Z,9.52
2023-03-16T00:04:37.202Z,11.38
2023-03-16T00:07:07.537Z,9.00
2023-03-16T00:09:34.203Z,9.73
2023-03-16T00:12:03.108Z,9.57
2023-03-16T00:14:30.673Z,9.07
2023-03-16T00:16:57.304Z,10.43
2023-03-16T00:19:24.142Z,8.52
2023-03-16T00:21:51.235Z,9.20
2023-03-16T00:24:19.211Z,7.88
2023-03-16T00:26:47.299Z,7.47
2023-03-16T00:29:14.066Z,8.05
2023-03-16T00:31:43.856Z,5.93
2023-03-16T00:34:11.552Z,7.07
2023-03-16T00:36:38.343Z,8.43
2023-03-16T00:39:06.751Z,8.20
2023-03-16T00:41:37.843Z,8.43
2023-03-16T00:44:05.613Z,7.68
2023-03-16T00:46:32.349Z,10.18
2023-03-16T00:48:58.999Z,8.68
2023-03-16T00:51:25.636Z,8.82
2023-03-16T00:53:52.278Z,12.50
2023-03-16T00:56:18.861Z,8.20
2023-03-16T00:58:45.512Z,8.48
2023-03-16T01:01:14.414Z,8.05
2023-03-16T01:03:41.093Z,9.70
2023-03-16T01:06:10.330Z,7.03
2023-03-16T01:08:38.364Z,11.07
2023-03-16T01:11:06.111Z,6.78
2023-03-16T01:13:32.746Z,7.57
2023-03-16T01:16:00.206Z,8.68
2023-03-16T01:18:27.724Z,10.70
2023-03-16T01:20:54.374Z,6.90
2023-03-16T01:23:21.241Z,12.32
2023-03-16T01:25:53.093Z,7.43
2023-03-16T01:28:23.462Z,10.30
2023-03-16T01:30:54.011Z,11.60
2023-03-16T01:33:21.791Z,7.07
2023-03-16T01:35:56.651Z,9.35
2023-03-16T01:38:23.393Z,7.90
2023-03-16T01:40:51.492Z,20.08
2023-03-16T01:43:19.969Z,12.15
2023-03-16T01:48:49.837Z,8.32
2023-03-16T01:51:38.079Z,10.07
2023-03-16T01:54:14.477Z,7.35
2023-03-16T01:56:45.683Z,10.57
2023-03-16T01:59:14.672Z,10.23
2023-03-16T02:01:41.358Z,10.75
2023-03-16T02:04:14.558Z,8.48
2023-03-16T02:06:41.396Z,10.13
2023-03-16T02:09:08.050Z,9.48
2023-03-16T02:11:34.793Z,9.43
2023-03-16T02:14:05.170Z,8.50
2023-03-16T02:16:31.834Z,10.82
2023-03-16T02:18:58.452Z,12.05
2023-03-16T02:21:47.402Z,12.88
2023-03-16T02:24:14.100Z,11.10
2023-03-16T02:26:47.509Z,11.27
2023-03-16T02:29:54.095Z,13.20
2023-03-16T02:32:21.444Z,12.63
2023-03-16T02:34:48.103Z,13.25
2023-03-16T02:37:14.771Z,12.63
2023-03-16T02:39:43.984Z,10.77
2023-03-16T02:42:13.006Z,10.57
2023-03-16T02:44:41.802Z,11.57
2023-03-16T02:47:14.722Z,11.52
2023-03-16T02:49:44.399Z,13.00
2023-03-16T02:52:11.198Z,12.00
2023-03-16T02:54:38.225Z,12.55
2023-03-16T02:57:04.935Z,13.55
2023-03-16T02:59:31.655Z,12.50
2023-03-16T03:01:58.262Z,13.23
2023-03-16T03:04:24.993Z,11.57
2023-03-16T03:06:51.810Z,12.77
2023-03-16T03:09:18.893Z,14.07
2023-03-16T03:11:46.704Z,13.80
2023-03-16T03:14:16.719Z,15.75
2023-03-16T03:16:46.780Z,16.50
2023-03-16T03:19:13.721Z,14.48
2023-03-16T03:21:41.482Z,15.52
2023-03-16T03:24:08.772Z,18.65
2023-03-16T03:26:35.618Z,14.95
2023-03-16T03:29:02.393Z,19.20
2023-03-16T03:31:29.031Z,16.65
2023-03-16T03:33:55.752Z,17.02
2023-03-16T03:36:22.383Z,17.30
2023-03-16T03:38:49.700Z,20.13
2023-03-16T03:41:16.303Z,18.67
2023-03-16T03:43:43.974Z,17.65
2023-03-16T03:46:10.750Z,18.00
2023-03-16T03:48:37.521Z,18.83
2023-03-16T03:51:05.447Z,17.08
2023-03-16T03:53:32.296Z,17.52
2023-03-16T03:55:58.910Z,23.50
2023-03-16T03:58:25.506Z,18.25
2023-03-16T04:00:52.397Z,18.63
2023-03-16T04:03:19.018Z,20.08
2023-03-16T04:05:45.672Z,21.88
2023-03-16T04:08:12.325Z,21.23
2023-03-16T04:10:39.254Z,18.63
2023-03-16T04:13:05.902Z,20.88
2023-03-16T04:15:32.982Z,21.95
2023-03-16T04:17:59.957Z,22.50
2023-03-16T04:20:26.945Z,22.08
2023-03-16T04:22:58.302Z,18.27
2023-03-16T04:25:26.582Z,19.67
2023-03-16T04:27:53.475Z,16.67
2023-03-16T04:30:20.274Z,17.23
2023-03-16T04:32:46.948Z,17.73
2023-03-16T04:35:15.445Z,16.27
2023-03-16T04:37:42.193Z,18.35
2023-03-16T04:40:16.728Z,20.10
2023-03-16T04:42:44.364Z,18.27
2023-03-16T04:45:11.294Z,22.00
2023-03-16T04:47:38.081Z,22.95
2023-03-16T04:50:05.925Z,21.55
2023-03-16T04:52:32.797Z,18.10
2023-03-16T04:54:59.378Z,17.80
2023-03-16T04:57:25.981Z,21.92
2023-03-16T04:59:52.589Z,17.35
2023-03-16T05:02:19.953Z,22.65
2023-03-16T05:04:46.665Z,16.20
2023-03-16T05:07:13.235Z,19.25
2023-03-16T05:09:39.857Z,15.45
2023-03-16T05:12:07.109Z,18.40
2023-03-16T05:14:35.953Z,13.93
2023-03-16T05:17:04.100Z,16.40
2023-03-16T05:19:30.931Z,18.00
2023-03-16T05:21:57.601Z,15.57
2023-03-16T05:24:24.217Z,20.67
2023-03-16T05:26:50.915Z,17.65
2023-03-16T05:29:17.579Z,17.73
2023-03-16T05:31:46.833Z,19.27
2023-03-16T05:34:13.596Z,16.98
2023-03-16T05:36:40.329Z,16.30
2023-03-16T05:39:08.487Z,16.00
2023-03-16T05:41:35.221Z,16.45
2023-03-16T05:44:01.996Z,19.42
2023-03-16T05:46:28.773Z,23.95
2023-03-16T05:48:55.396Z,21.02
2023-03-16T05:51:22.012Z,17.48
2023-03-16T05:53:48.966Z,16.23
2023-03-16T05:56:15.626Z,16.65
2023-03-16T05:58:42.396Z,14.90
2023-03-16T06:01:09.951Z,15.48
2023-03-16T06:03:36.665Z,14.73
2023-03-16T06:06:04.353Z,32.90
2023-03-16T06:08:30.974Z,13.90
2023-03-16T06:10:57.655Z,13.32
2023-03-16T06:13:24.410Z,12.82
2023-03-16T06:15:51.032Z,13.60
2023-03-16T06:18:17.673Z,16.20
2023-03-16T06:20:44.371Z,15.00
2023-03-16T06:23:10.992Z,12.93
2023-03-16T06:25:40.546Z,13.90
2023-03-16T06:28:07.907Z,17.52
2023-03-16T06:30:34.903Z,19.45
2023-03-16T06:33:02.198Z,15.82
2023-03-16T06:35:28.998Z,15.55
2023-03-16T06:37:55.619Z,15.18
2023-03-16T06:40:22.391Z,14.88
2023-03-16T06:42:52.093Z,15.75
2023-03-16T06:45:21.367Z,19.50
2023-03-16T06:47:48.294Z,15.48
2023-03-16T06:50:15.085Z,14.43
2023-03-16T06:52:41.725Z,14.77
2023-03-16T06:55:09.881Z,19.05
2023-03-16T06:57:36.538Z,13.98
2023-03-16T07:00:04.358Z,18.27
2023-03-16T07:02:32.138Z,28.48
2023-03-16T07:04:58.734Z,18.10
2023-03-16T07:07:27.118Z,18.25
2023-03-16T07:09:54.179Z,20.15
2023-03-16T07:12:21.063Z,16.52
2023-03-16T07:14:51.229Z,26.10
2023-03-16T07:17:19.180Z,20.73
2023-03-16T07:19:45.806Z,16.67
2023-03-16T07:22:12.629Z,13.23
2023-03-16T07:24:39.540Z,19.77
2023-03-16T07:27:06.172Z,43.97
2023-03-16T07:29:34.064Z,22.35
2023-03-16T07:32:00.902Z,15.77
2023-03-16T07:34:27.547Z,15.90
2023-03-16T07:36:55.806Z,24.00
2023-03-16T07:39:22.708Z,35.55
2023-03-16T07:41:49.370Z,16.33
2023-03-16T07:44:16.292Z,21.58
2023-03-16T07:46:43.171Z,17.23
2023-03-16T07:49:10.928Z,17.65
2023-03-16T07:51:37.665Z,19.33
2023-03-16T07:54:05.238Z,19.92
2023-03-16T07:56:47.405Z,19.98
2023-03-16T07:59:15.120Z,14.70
2023-03-16T08:01:42.043Z,17.27
2023-03-16T08:04:12.196Z,19.77
2023-03-16T08:06:38.926Z,13.48
2023-03-16T08:09:06.172Z,12.65
2023-03-16T08:11:32.934Z,12.27
2023-03-16T08:14:03.478Z,11.95
2023-03-16T08:16:30.258Z,11.82
2023-03-16T08:18:57.273Z,15.18
2023-03-16T08:21:24.055Z,14.05
2023-03-16T08:23:51.980Z,14.32
2023-03-16T08:26:20.083Z,20.33
2023-03-16T08:28:46.931Z,15.13
2023-03-16T08:31:14.906Z,14.70
2023-03-16T08:33:42.551Z,12.23
2023-03-16T08:36:11.699Z,10.60
2023-03-16T08:38:39.948Z,11.68
2023-03-16T08:41:07.033Z,10.32
2023-03-16T08:43:33.744Z,9.32
2023-03-16T08:46:01.694Z,15.18
2023-03-16T08:48:28.758Z,29.92
2023-03-16T08:50:55.547Z,15.07
2023-03-16T08:53:22.677Z,11.10
2023-03-16T08:55:49.922Z,15.27
2023-03-16T08:58:17.072Z,15.27
2023-03-16T09:00:47.081Z,17.13
2023-03-16T09:03:15.459Z,12.15
2023-03-16T09:05:42.392Z,16.00
2023-03-16T09:08:09.677Z,15.35
2023-03-16T09:10:36.472Z,13.82
2023-03-16T09:13:03.182Z,11.23
2023-03-16T09:15:29.921Z,10.07
2023-03-16T09:17:59.814Z,14.68
2023-03-16T09:20:30.101Z,9.30
2023-03-16T09:22:57.465Z,14.82
2023-03-16T09:25:25.344Z,13.60
2023-03-16T09:27:52.690Z,13.02
2023-03-16T09:30:19.753Z,13.77
2023-03-16T09:32:48.683Z,25.70
2023-03-16T09:35:15.538Z,18.05
2023-03-16T09:37:45.265Z,10.98
2023-03-16T09:40:24.791Z,13.55
2023-03-16T09:43:09.124Z,11.73
2023-03-16T09:45:57.558Z,10.00
2023-03-16T09:48:25.266Z,12.20
2023-03-16T09:50:53.100Z,16.10
2023-03-16T09:53:29.748Z,10.35
2023-03-16T09:56:03.662Z,14.40
2023-03-16T09:58:32.117Z,8.27
2023-03-16T10:06:26.449Z,9.75
2023-03-16T10:09:05.563Z,12.63
2023-03-16T10:11:38.137Z,8.27
2023-03-16T10:14:43.516Z,9.25
2023-03-16T10:17:33.492Z,7.35
2023-03-16T10:20:04.637Z,7.38
2023-03-16T10:22:33.634Z,7.10
2023-03-16T10:27:45.912Z,9.07
2023-03-16T10:30:22.285Z,10.13
2023-03-16T10:32:49.570Z,9.93
2023-03-16T10:35:41.407Z,12.55
2023-03-16T10:38:09.128Z,12.27
2023-03-16T10:40:38.550Z,11.68
2023-03-16T10:43:07.006Z,12.98
2023-03-16T10:45:35.282Z,8.55
2023-03-16T10:48:19.743Z,6.50
2023-03-16T10:51:03.442Z,17.10
2023-03-16T10:53:31.543Z,8.43
2023-03-16T10:55:59.404Z,12.85
2023-03-16T10:58:30.803Z,8.38
2023-03-16T11:00:57.647Z,14.65
2023-03-16T11:03:28.973Z,14.35
2023-03-16T11:05:59.316Z,9.90
2023-03-16T11:08:27.227Z,9.35
2023-03-16T11:10:58.133Z,9.23
2023-03-16T11:13:31.180Z,8.52
2023-03-16T11:16:22.911Z,11.30
2023-03-16T11:18:56.431Z,11.18
2023-03-16T11:21:43.614Z,9.95
2023-03-16T11:24:23.225Z,9.70
2023-03-16T11:26:55.586Z,11.48
2023-03-16T11:32:16.335Z,19.75
2023-03-16T11:34:43.489Z,12.05
2023-03-16T11:37:19.303Z,9.18
2023-03-16T11:42:48.998Z,13.30
2023-03-16T11:45:21.958Z,18.25
2023-03-16T11:48:20.423Z,13.38
2023-03-16T11:50:54.298Z,13.02
2023-03-16T11:53:45.992Z,11.20
2023-03-16T11:56:39.923Z,7.43
2023-03-16T11:59:36.610Z,12.20
2023-03-16T12:05:33.073Z,11.57
2023-03-16T12:08:24.685Z,9.93
2023-03-16T12:11:03.193Z,12.02
2023-03-16T12:13:52.537Z,13.52
2023-03-16T12:16:48.259Z,13.35
2023-03-16T12:19:28.409Z,12.90
2023-03-16T12:22:02.469Z,26.98
2023-03-16T12:24:32.058Z,11.52
2023-03-16T12:26:59.586Z,6.95
2023-03-16T12:29:46.436Z,9.90
2023-03-16T12:32:19.298Z,6.10
2023-03-16T12:34:52.517Z,12.88
2023-03-16T12:37:31.079Z,20.75
2023-03-16T12:40:23.111Z,15.50
2023-03-16T12:42:56.817Z,10.00
2023-03-16T12:48:29.754Z,12.95
2023-03-16T12:50:58.579Z,9.57
2023-03-16T12:53:44.677Z,6.43
2023-03-16T12:56:13.737Z,6.90
2023-03-16T12:58:42.322Z,8.27
2023-03-16T13:01:12.404Z,7.25
2023-03-16T13:03:39.413Z,8.93
2023-03-16T13:06:06.066Z,5.55
2023-03-16T13:08:42.534Z,11.32
2023-03-16T13:11:10.826Z,21.95
2023-03-16T13:14:03.357Z,6.07
2023-03-16T13:16:31.971Z,7.55
2023-03-16T13:18:58.939Z,12.52
2023-03-16T13:21:41.532Z,15.57
2023-03-16T13:24:26.199Z,13.00
2023-03-16T13:26:54.345Z,12.18
2023-03-16T13:29:29.252Z,6.47
2023-03-16T13:31:59.115Z,11.13
2023-03-16T13:34:36.293Z,11.50
2023-03-16T13:37:04.075Z,6.93
2023-03-16T13:39:31.422Z,7.10
2023-03-16T13:42:18.304Z,7.88
2023-03-16T13:44:45.337Z,7.85
2023-03-16T13:47:14.677Z,9.15
2023-03-16T13:49:45.487Z,9.35
2023-03-16T13:52:16.316Z,6.07
2023-03-16T13:54:43.067Z,6.43
2023-03-16T13:57:11.130Z,14.18
2023-03-16T13:59:37.943Z,4.13
2023-03-16T14:02:16.022Z,4.07
2023-03-16T14:04:43.532Z,6.30
2023-03-16T14:07:19.047Z,8.48
2023-03-16T14:09:46.670Z,14.13
2023-03-16T14:12:14.768Z,5.03
2023-03-16T14:14:41.636Z,11.00
2023-03-16T14:17:11.912Z,10.88
2023-03-16T14:19:44.382Z,5.55
2023-03-16T14:22:13.224Z,10.65
2023-03-16T14:24:40.891Z,17.35
2023-03-16T14:27:43.756Z,12.43
2023-03-16T14:30:24.055Z,9.93
2023-03-16T14:32:58.943Z,4.15
2023-03-16T14:35:31.177Z,6.60
2023-03-16T14:37:58.209Z,7.50
2023-03-16T14:40:28.635Z,14.18
2023-03-16T14:42:57.521Z,5.57
2023-03-16T14:45:27.292Z,5.10
2023-03-16T14:47:54.431Z,4.55
2023-03-16T14:50:26.090Z,3.58
2023-03-16T14:52:54.308Z,6.47
2023-03-16T14:55:22.814Z,17.58
2023-03-16T14:57:51.272Z,9.02
2023-03-16T15:00:19.432Z,7.25
2023-03-16T15:03:02.540Z,11.70
2023-03-16T15:05:33.245Z,6.22
2023-03-16T15:08:01.657Z,8.45
2023-03-16T15:10:30.290Z,10.50
2023-03-16T15:13:04.186Z,10.07
2023-03-16T15:15:31.089Z,6.70
2023-03-16T15:17:58.304Z,12.02
2023-03-16T15:20:38.648Z,20.05
2023-03-16T15:23:06.151Z,7.55
2023-03-16T15:25:38.320Z,18.58
2023-03-16T15:28:22.220Z,10.52
2023-03-16T15:30:53.447Z,6.18
2023-03-16T15:33:20.708Z,12.90
2023-03-16T15:35:49.154Z,4.72
2023-03-16T15:38:22.440Z,12.43
2023-03-16T15:40:51.625Z,7.20
2023-03-16T15:43:20.100Z,6.55
2023-03-16T15:45:47.165Z,9.27
2023-03-16T15:48:14.285Z,6.53
2023-03-16T15:50:42.006Z,7.45
2023-03-16T15:53:29.226Z,10.13
2023-03-16T15:56:06.368Z,12.55
2023-03-16T15:58:33.968Z,12.68
2023-03-16T16:01:00.940Z,5.95
2023-03-16T16:03:27.624Z,5.50
2023-03-16T16:05:54.536Z,5.88
2023-03-16T16:08:22.586Z,10.85
2023-03-16T16:10:49.717Z,7.35
2023-03-16T16:13:23.373Z,4.85
2023-03-16T16:15:53.598Z,9.13
2023-03-16T16:18:27.708Z,11.63
2023-03-16T16:20:55.092Z,5.95
2023-03-16T16:23:21.874Z,5.22
2023-03-16T16:25:49.581Z,4.78
2023-03-16T16:28:17.579Z,2.88
2023-03-16T16:30:44.296Z,5.43
2023-03-16T16:33:33.093Z,4.05
2023-03-16T16:36:01.809Z,4.10
2023-03-16T16:38:29.235Z,6.00
2023-03-16T16:40:58.352Z,4.75
2023-03-16T16:43:32.950Z,4.18
2023-03-16T16:46:01.602Z,4.68
2023-03-16T16:48:31.728Z,8.43
2023-03-16T16:50:59.676Z,6.55
2023-03-16T16:53:26.451Z,5.18
2023-03-16T16:55:54.027Z,4.90
2023-03-16T16:58:24.514Z,8.15
2023-03-16T17:00:58.773Z,6.80
2023-03-16T17:03:27.427Z,6.30
2023-03-16T17:05:56.887Z,4.68
2023-03-16T17:08:25.306Z,6.20
2023-03-16T17:10:53.192Z,6.22
2023-03-16T17:13:26.821Z,12.90
2023-03-16T17:15:54.897Z,9.27
2023-03-16T17:18:22.336Z,8.52
2023-03-16T17:20:50.539Z,10.88
2023-03-16T17:23:34.570Z,11.45
2023-03-16T17:26:03.748Z,8.70
2023-03-16T17:28:35.137Z,7.93
2023-03-16T17:31:02.208Z,8.88
2023-03-16T17:33:28.875Z,7.28
2023-03-16T17:35:55.727Z,9.32
2023-03-16T17:38:23.426Z,9.52
2023-03-16T17:40:50.951Z,6.50
2023-03-16T17:43:20.036Z,5.28
2023-03-16T17:45:47.086Z,4.82
2023-03-16T17:48:16.470Z,9.98
2023-03-16T17:50:46.072Z,7.25
2023-03-16T17:53:14.751Z,6.40
2023-03-16T17:55:41.534Z,9.50
2023-03-16T17:58:29.457Z,8.20
2023-03-16T18:00:56.288Z,6.15
2023-03-16T18:03:24.788Z,9.00
2023-03-16T18:05:51.555Z,7.40
2023-03-16T18:08:34.056Z,7.30
2023-03-16T18:11:06.577Z,7.25
2023-03-16T18:13:36.253Z,10.05
2023-03-16T18:16:04.862Z,5.03
2023-03-16T18:18:35.032Z,4.57
2023-03-16T18:21:01.746Z,9.10
2023-03-16T18:23:30.698Z,5.40
2023-03-16T18:26:02.176Z,7.55
2023-03-16T18:28:29.657Z,5.68
2023-03-16T18:30:57.406Z,6.85
2023-03-16T18:33:27.510Z,7.88
2023-03-16T18:35:55.585Z,9.48
2023-03-16T18:38:39.236Z,15.43
2023-03-16T18:41:25.925Z,10.82
2023-03-16T18:43:54.033Z,15.15
2023-03-16T18:46:36.477Z,13.68
2023-03-16T18:49:04.805Z,12.25
2023-03-16T18:51:31.577Z,10.48
2023-03-16T18:53:58.361Z,9.43
2023-03-16T18:56:27.098Z,6.32
2023-03-16T18:58:54.365Z,18.08
2023-03-16T19:01:26.496Z,12.77
2023-03-16T19:03:53.265Z,9.00
2023-03-16T19:06:25.241Z,10.75
2023-03-16T19:08:52.641Z,8.55
2023-03-16T19:11:22.860Z,12.25
2023-03-16T19:13:50.318Z,9.73
2023-03-16T19:16:18.646Z,12.90
2023-03-16T19:21:23.380Z,8.90
2023-03-16T19:23:57.317Z,7.82
2023-03-16T19:26:24.342Z,7.38
2023-03-16T19:28:51.294Z,7.47
2023-03-16T19:31:29.066Z,7.65
2023-03-16T19:33:59.302Z,7.18
2023-03-16T19:36:30.188Z,8.88
2023-03-16T19:38:57.785Z,7.13
2023-03-16T19:41:27.088Z,7.22
2023-03-16T19:43:54.841Z,7.47
2023-03-16T19:46:21.593Z,9.07
2023-03-16T19:48:48.782Z,6.25
2023-03-16T19:51:17.336Z,8.98
2023-03-16T19:53:44.283Z,9.43
2023-03-16T19:56:19.334Z,8.75
2023-03-16T19:58:47.482Z,10.20
2023-03-16T20:01:17.642Z,8.80
2023-03-16T20:03:45.214Z,7.57
2023-03-16T20:06:13.925Z,9.75
2023-03-16T20:08:42.000Z,26.85
2023-03-16T20:11:14.669Z,8.68
2023-03-16T20:16:14.383Z,7.10
2023-03-16T20:21:09.527Z,6.63
2023-03-16T20:23:36.564Z,9.20
2023-03-16T20:26:03.943Z,10.10
2023-03-16T20:28:37.448Z,8.05
2023-03-16T20:31:08.383Z,6.80
2023-03-16T20:33:45.287Z,11.18
2023-03-16T20:36:15.406Z,6.72
2023-03-16T20:38:43.508Z,9.07
2023-03-16T20:41:18.414Z,6.55
2023-03-16T20:43:45.509Z,8.75
2023-03-16T20:46:17.615Z,5.75
2023-03-16T20:48:44.622Z,9.07
2023-03-16T20:51:14.464Z,8.73
2023-03-16T20:53:43.866Z,6.95
2023-03-16T20:56:16.760Z,7.13
2023-03-16T20:58:45.096Z,8.68
2023-03-16T21:01:18.604Z,6.43
2023-03-16T21:03:47.767Z,7.85
2023-03-16T21:06:26.335Z,7.82
2023-03-16T21:08:54.187Z,9.30
2023-03-16T21:11:38.534Z,6.82
2023-03-16T21:14:06.205Z,7.43
2023-03-16T21:16:33.139Z,6.70
2023-03-16T21:18:59.748Z,9.00
2023-03-16T21:21:26.405Z,6.22
2023-03-16T21:23:53.051Z,9.55
2023-03-16T21:26:22.166Z,8.10
2023-03-16T21:28:56.485Z,8.07
2023-03-16T21:31:23.421Z,7.07
2023-03-16T21:33:51.285Z,7.90
2023-03-16T21:36:19.672Z,9.68
2023-03-16T21:38:55.775Z,6.05
2023-03-16T21:41:23.766Z,11.07
2023-03-16T21:43:54.806Z,7.03
2023-03-16T21:46:26.194Z,7.40
2023-03-16T21:48:54.975Z,6.30
2023-03-16T21:51:25.518Z,7.25
2023-03-16T21:53:53.589Z,7.43
2023-03-16T21:56:26.039Z,7.53
2023-03-16T21:58:53.713Z,9.35
2023-03-16T22:01:26.700Z,9.88
2023-03-16T22:03:55.592Z,7.38
2023-03-16T22:06:22.847Z,6.22
2023-03-16T22:08:51.191Z,8.10
2023-03-16T22:11:20.010Z,11.80
2023-03-16T22:13:47.124Z,7.50
2023-03-16T22:16:16.229Z,6.22
2023-03-16T22:18:43.566Z,8.25
2023-03-16T22:21:32.536Z,6.60
2023-03-16T22:23:59.779Z,8.45
2023-03-16T22:26:26.643Z,8.25
2023-03-16T22:28:55.261Z,6.60
2023-03-16T22:31:39.111Z,6.65
2023-03-16T22:34:06.131Z,7.93
2023-03-16T22:36:32.794Z,6.43
2023-03-16T22:39:02.431Z,7.50
2023-03-16T22:41:29.360Z,5.75
2023-03-16T22:43:56.466Z,7.10
2023-03-16T22:46:24.871Z,6.85
2023-03-16T22:48:52.639Z,5.53
2023-03-16T22:51:28.612Z,7.32
2023-03-16T22:53:57.889Z,6.35
2023-03-16T22:56:24.530Z,6.95
2023-03-16T22:58:54.250Z,9.50
2023-03-16T23:01:23.742Z,7.53
2023-03-16T23:03:51.636Z,7.28
2023-03-16T23:06:28.187Z,9.23
2023-03-16T23:08:56.834Z,8.32
2023-03-16T23:11:28.382Z,7.00
2023-03-16T23:13:59.029Z,6.53
2023-03-16T23:16:28.956Z,7.00
2023-03-16T23:18:56.297Z,7.32
2023-03-16T23:21:29.345Z,5.90
2023-03-16T23:24:03.419Z,8.05
2023-03-16T23:26:38.008Z,6.72
2023-03-16T23:29:04.658Z,6.32
2023-03-16T23:31:31.426Z,8.60
2023-03-16T23:33:58.180Z,6.88
2023-03-16T23:36:25.843Z,6.47
2023-03-16T23:38:52.491Z,9.05
2023-03-16T23:41:22.097Z,7.90
2023-03-16T23:43:48.833Z,7.90
2023-03-16T23:46:17.659Z,5.25
2023-03-16T23:48:44.867Z,11.02
2023-03-16T23:51:20.396Z,5.15
2023-03-16T23:53:47.695Z,7.63
2023-03-16T23:56:14.318Z,6.10
2023-03-16T23:58:41.906Z,9.73
